sensor_id;sensor_type;location;lat;lon;timestamp;P1;durP1;ratioP1;P2;durP2;ratioP2
23682;SDS011;24897;53.514;10.482;2023-08-06T00:00:27;27.53;;;25.03;;
23682;SDS011;24897;53.514;10.482;2023-08-06T00:03:11;26.50;;;24.10;;
23682;SDS011;24897;53.514;10.482;2023-08-06T00:05:56;27.83;;;25.30;;
23682;SDS011;24897;53.514;10.482;2023-08-06T00:08:39;27.90;;;25.23;;
23682;SDS011;24897;53.514;10.482;2023-08-06T00:11:24;27.83;;;25.27;;
23682;SDS011;24897;53.514;10.482;2023-08-06T00:14:08;28.07;;;25.47;;
23682;SDS011;24897;53.514;10.482;2023-08-06T00:16:52;28.90;;;26.07;;
23682;SDS011;24897;53.514;10.482;2023-08-06T00:19:36;28.23;;;25.63;;
23682;SDS011;24897;53.514;10.482;2023-08-06T00:22:20;29.00;;;26.20;;
23682;SDS011;24897;53.514;10.482;2023-08-06T00:25:04;28.80;;;25.93;;
23682;SDS011;24897;53.514;10.482;2023-08-06T00:27:48;30.87;;;27.77;;
23682;SDS011;24897;53.514;10.482;2023-08-06T00:30:32;33.40;;;30.10;;
23682;SDS011;24897;53.514;10.482;2023-08-06T00:33:16;35.00;;;31.33;;
23682;SDS011;24897;53.514;10.482;2023-08-06T00:36:00;36.33;;;32.73;;
23682;SDS011;24897;53.514;10.482;2023-08-06T00:38:45;35.50;;;31.90;;
23682;SDS011;24897;53.514;10.482;2023-08-06T00:41:29;34.20;;;30.70;;
23682;SDS011;24897;53.514;10.482;2023-08-06T00:44:13;35.17;;;30.90;;
23682;SDS011;24897;53.514;10.482;2023-08-06T00:46:57;33.43;;;29.83;;
23682;SDS011;24897;53.514;10.482;2023-08-06T00:49:41;34.43;;;30.70;;
23682;SDS011;24897;53.514;10.482;2023-08-06T00:52:26;34.27;;;30.23;;
23682;SDS011;24897;53.514;10.482;2023-08-06T00:55:10;34.87;;;31.07;;
23682;SDS011;24897;53.514;10.482;2023-08-06T00:57:54;34.97;;;30.67;;
23682;SDS011;24897;53.514;10.482;2023-08-06T01:00:42;35.90;;;30.57;;
23682;SDS011;24897;53.514;10.482;2023-08-06T01:03:37;34.60;;;30.53;;
23682;SDS011;24897;53.514;10.482;2023-08-06T01:06:29;34.73;;;29.93;;
23682;SDS011;24897;53.514;10.482;2023-08-06T01:12:57;34.87;;;30.03;;
23682;SDS011;24897;53.514;10.482;2023-08-06T01:16:03;35.73;;;29.73;;
23682;SDS011;24897;53.514;10.482;2023-08-06T01:18:52;35.47;;;29.90;;
23682;SDS011;24897;53.514;10.482;2023-08-06T01:21:36;34.87;;;30.07;;
23682;SDS011;24897;53.514;10.482;2023-08-06T01:24:20;36.67;;;31.13;;
23682;SDS011;24897;53.514;10.482;2023-08-06T01:27:06;35.73;;;31.67;;
23682;SDS011;24897;53.514;10.482;2023-08-06T01:30:02;35.03;;;29.87;;
23682;SDS011;24897;53.514;10.482;2023-08-06T01:32:58;35.47;;;30.77;;
23682;SDS011;24897;53.514;10.482;2023-08-06T01:35:47;34.20;;;29.73;;
23682;SDS011;24897;53.514;10.482;2023-08-06T01:38:33;34.67;;;29.47;;
23682;SDS011;24897;53.514;10.482;2023-08-06T01:41:18;37.33;;;30.27;;
23682;SDS011;24897;53.514;10.482;2023-08-06T01:44:02;35.87;;;30.10;;
23682;SDS011;24897;53.514;10.482;2023-08-06T01:46:46;34.80;;;30.60;;
23682;SDS011;24897;53.514;10.482;2023-08-06T01:49:30;37.03;;;30.70;;
23682;SDS011;24897;53.514;10.482;2023-08-06T01:52:14;35.90;;;30.87;;
23682;SDS011;24897;53.514;10.482;2023-08-06T01:54:58;36.73;;;30.60;;
23682;SDS011;24897;53.514;10.482;2023-08-06T01:57:42;36.53;;;29.97;;
23682;SDS011;24897;53.514;10.482;2023-08-06T02:00:26;35.40;;;29.90;;
23682;SDS011;24897;53.514;10.482;2023-08-06T02:03:12;37.27;;;30.70;;
23682;SDS011;24897;53.514;10.482;2023-08-06T02:05:56;34.53;;;28.13;;
23682;SDS011;24897;53.514;10.482;2023-08-06T02:08:40;33.53;;;27.47;;
23682;SDS011;24897;53.514;10.482;2023-08-06T02:11:24;34.97;;;28.13;;
23682;SDS011;24897;53.514;10.482;2023-08-06T02:14:08;35.33;;;27.87;;
23682;SDS011;24897;53.514;10.482;2023-08-06T02:16:52;32.20;;;26.93;;
23682;SDS011;24897;53.514;10.482;2023-08-06T02:19:36;33.43;;;27.00;;
23682;SDS011;24897;53.514;10.482;2023-08-06T02:22:20;30.47;;;26.47;;
23682;SDS011;24897;53.514;10.482;2023-08-06T02:25:06;34.30;;;27.30;;
23682;SDS011;24897;53.514;10.482;2023-08-06T02:27:51;33.27;;;27.00;;
23682;SDS011;24897;53.514;10.482;2023-08-06T02:30:35;33.37;;;26.40;;
23682;SDS011;24897;53.514;10.482;2023-08-06T02:33:19;30.83;;;26.10;;
23682;SDS011;24897;53.514;10.482;2023-08-06T02:36:04;30.30;;;26.60;;
23682;SDS011;24897;53.514;10.482;2023-08-06T02:38:48;32.13;;;26.50;;
23682;SDS011;24897;53.514;10.482;2023-08-06T02:41:32;30.33;;;26.73;;
23682;SDS011;24897;53.514;10.482;2023-08-06T02:44:17;30.23;;;25.93;;
23682;SDS011;24897;53.514;10.482;2023-08-06T02:47:01;30.67;;;26.40;;
23682;SDS011;24897;53.514;10.482;2023-08-06T02:49:45;29.07;;;25.67;;
23682;SDS011;24897;53.514;10.482;2023-08-06T02:52:32;29.67;;;26.47;;
23682;SDS011;24897;53.514;10.482;2023-08-06T02:55:16;31.30;;;26.80;;
23682;SDS011;24897;53.514;10.482;2023-08-06T02:58:01;33.97;;;26.13;;
23682;SDS011;24897;53.514;10.482;2023-08-06T03:00:45;29.40;;;26.07;;
23682;SDS011;24897;53.514;10.482;2023-08-06T03:03:30;29.63;;;26.37;;
23682;SDS011;24897;53.514;10.482;2023-08-06T03:06:14;30.67;;;27.10;;
23682;SDS011;24897;53.514;10.482;2023-08-06T03:08:58;30.90;;;27.33;;
23682;SDS011;24897;53.514;10.482;2023-08-06T03:11:42;31.13;;;27.83;;
23682;SDS011;24897;53.514;10.482;2023-08-06T03:14:26;30.00;;;26.80;;
23682;SDS011;24897;53.514;10.482;2023-08-06T03:17:11;33.83;;;27.67;;
23682;SDS011;24897;53.514;10.482;2023-08-06T03:19:55;32.93;;;27.67;;
23682;SDS011;24897;53.514;10.482;2023-08-06T03:22:39;31.53;;;27.30;;
23682;SDS011;24897;53.514;10.482;2023-08-06T03:25:23;33.17;;;27.77;;
23682;SDS011;24897;53.514;10.482;2023-08-06T03:28:08;31.30;;;27.87;;
23682;SDS011;24897;53.514;10.482;2023-08-06T03:31:01;34.93;;;28.43;;
23682;SDS011;24897;53.514;10.482;2023-08-06T03:33:46;31.93;;;28.23;;
23682;SDS011;24897;53.514;10.482;2023-08-06T03:36:30;34.00;;;28.47;;
23682;SDS011;24897;53.514;10.482;2023-08-06T03:39:14;31.00;;;27.60;;
23682;SDS011;24897;53.514;10.482;2023-08-06T03:41:58;33.50;;;28.23;;
23682;SDS011;24897;53.514;10.482;2023-08-06T03:44:42;36.20;;;29.47;;
23682;SDS011;24897;53.514;10.482;2023-08-06T03:47:26;33.50;;;28.23;;
23682;SDS011;24897;53.514;10.482;2023-08-06T03:50:10;33.20;;;28.63;;
23682;SDS011;24897;53.514;10.482;2023-08-06T03:52:54;35.30;;;28.63;;
23682;SDS011;24897;53.514;10.482;2023-08-06T03:55:38;32.70;;;28.90;;
23682;SDS011;24897;53.514;10.482;2023-08-06T03:58:22;32.10;;;28.37;;
23682;SDS011;24897;53.514;10.482;2023-08-06T04:01:06;32.70;;;28.30;;
23682;SDS011;24897;53.514;10.482;2023-08-06T04:03:51;34.73;;;28.70;;
23682;SDS011;24897;53.514;10.482;2023-08-06T04:06:35;33.57;;;28.63;;
23682;SDS011;24897;53.514;10.482;2023-08-06T04:09:19;33.77;;;28.03;;
23682;SDS011;24897;53.514;10.482;2023-08-06T04:12:03;34.87;;;28.17;;
23682;SDS011;24897;53.514;10.482;2023-08-06T04:14:48;33.40;;;27.97;;
23682;SDS011;24897;53.514;10.482;2023-08-06T04:17:34;33.83;;;28.97;;
23682;SDS011;24897;53.514;10.482;2023-08-06T04:20:18;33.90;;;28.67;;
23682;SDS011;24897;53.514;10.482;2023-08-06T04:23:05;36.37;;;30.13;;
23682;SDS011;24897;53.514;10.482;2023-08-06T04:25:50;36.33;;;29.57;;
23682;SDS011;24897;53.514;10.482;2023-08-06T04:28:34;34.27;;;29.37;;
23682;SDS011;24897;53.514;10.482;2023-08-06T04:31:18;38.10;;;31.10;;
23682;SDS011;24897;53.514;10.482;2023-08-06T04:34:02;37.10;;;31.17;;
23682;SDS011;24897;53.514;10.482;2023-08-06T04:36:46;35.17;;;30.10;;
23682;SDS011;24897;53.514;10.482;2023-08-06T04:39:30;37.70;;;31.03;;
23682;SDS011;24897;53.514;10.482;2023-08-06T04:42:14;34.30;;;30.43;;
23682;SDS011;24897;53.514;10.482;2023-08-06T04:44:58;36.17;;;30.77;;
23682;SDS011;24897;53.514;10.482;2023-08-06T04:47:42;38.43;;;31.67;;
23682;SDS011;24897;53.514;10.482;2023-08-06T04:50:26;35.50;;;31.13;;
23682;SDS011;24897;53.514;10.482;2023-08-06T04:53:10;37.97;;;31.63;;
23682;SDS011;24897;53.514;10.482;2023-08-06T04:55:54;38.57;;;31.73;;
23682;SDS011;24897;53.514;10.482;2023-08-06T04:58:39;36.10;;;32.00;;
23682;SDS011;24897;53.514;10.482;2023-08-06T05:01:23;35.90;;;31.70;;
23682;SDS011;24897;53.514;10.482;2023-08-06T05:04:07;36.23;;;31.53;;
23682;SDS011;24897;53.514;10.482;2023-08-06T05:06:51;36.87;;;31.10;;
23682;SDS011;24897;53.514;10.482;2023-08-06T05:09:35;36.10;;;31.63;;
23682;SDS011;24897;53.514;10.482;2023-08-06T05:12:19;37.13;;;31.43;;
23682;SDS011;24897;53.514;10.482;2023-08-06T05:15:03;36.83;;;30.77;;
23682;SDS011;24897;53.514;10.482;2023-08-06T05:17:47;36.30;;;31.47;;
23682;SDS011;24897;53.514;10.482;2023-08-06T05:20:35;35.10;;;30.07;;
23682;SDS011;24897;53.514;10.482;2023-08-06T05:23:20;34.77;;;30.97;;
23682;SDS011;24897;53.514;10.482;2023-08-06T05:26:04;37.07;;;30.70;;
23682;SDS011;24897;53.514;10.482;2023-08-06T05:28:49;34.40;;;30.53;;
23682;SDS011;24897;53.514;10.482;2023-08-06T05:31:33;34.77;;;29.77;;
23682;SDS011;24897;53.514;10.482;2023-08-06T05:34:17;34.00;;;30.20;;
23682;SDS011;24897;53.514;10.482;2023-08-06T05:37:01;34.77;;;30.60;;
23682;SDS011;24897;53.514;10.482;2023-08-06T05:39:46;33.20;;;29.50;;
23682;SDS011;24897;53.514;10.482;2023-08-06T05:42:30;36.07;;;30.70;;
23682;SDS011;24897;53.514;10.482;2023-08-06T05:45:14;40.63;;;30.93;;
23682;SDS011;24897;53.514;10.482;2023-08-06T05:47:58;34.77;;;30.17;;
23682;SDS011;24897;53.514;10.482;2023-08-06T05:50:42;36.67;;;28.93;;
23682;SDS011;24897;53.514;10.482;2023-08-06T05:53:26;33.57;;;28.83;;
23682;SDS011;24897;53.514;10.482;2023-08-06T05:56:10;33.70;;;29.73;;
23682;SDS011;24897;53.514;10.482;2023-08-06T05:58:54;36.57;;;29.60;;
23682;SDS011;24897;53.514;10.482;2023-08-06T06:01:38;33.10;;;29.53;;
23682;SDS011;24897;53.514;10.482;2023-08-06T06:04:23;33.03;;;28.93;;
23682;SDS011;24897;53.514;10.482;2023-08-06T06:07:07;32.90;;;29.30;;
23682;SDS011;24897;53.514;10.482;2023-08-06T06:09:51;33.50;;;29.57;;
23682;SDS011;24897;53.514;10.482;2023-08-06T06:12:35;36.73;;;29.87;;
23682;SDS011;24897;53.514;10.482;2023-08-06T06:15:19;35.57;;;28.97;;
23682;SDS011;24897;53.514;10.482;2023-08-06T06:18:03;33.67;;;29.33;;
23682;SDS011;24897;53.514;10.482;2023-08-06T06:20:47;33.23;;;29.50;;
23682;SDS011;24897;53.514;10.482;2023-08-06T06:23:32;35.33;;;29.43;;
23682;SDS011;24897;53.514;10.482;2023-08-06T06:26:15;34.90;;;29.20;;
23682;SDS011;24897;53.514;10.482;2023-08-06T06:29:00;34.17;;;27.83;;
23682;SDS011;24897;53.514;10.482;2023-08-06T06:31:44;38.00;;;29.17;;
23682;SDS011;24897;53.514;10.482;2023-08-06T06:34:28;32.20;;;27.80;;
23682;SDS011;24897;53.514;10.482;2023-08-06T06:37:12;31.17;;;27.80;;
23682;SDS011;24897;53.514;10.482;2023-08-06T06:39:56;38.47;;;29.37;;
23682;SDS011;24897;53.514;10.482;2023-08-06T06:42:40;34.03;;;29.07;;
23682;SDS011;24897;53.514;10.482;2023-08-06T06:45:24;36.23;;;29.47;;
23682;SDS011;24897;53.514;10.482;2023-08-06T06:48:08;35.00;;;28.90;;
23682;SDS011;24897;53.514;10.482;2023-08-06T06:50:52;36.20;;;28.87;;
23682;SDS011;24897;53.514;10.482;2023-08-06T06:53:36;33.27;;;29.17;;
23682;SDS011;24897;53.514;10.482;2023-08-06T06:56:20;33.40;;;29.27;;
23682;SDS011;24897;53.514;10.482;2023-08-06T06:59:04;32.50;;;28.80;;
23682;SDS011;24897;53.514;10.482;2023-08-06T07:01:48;35.33;;;28.97;;
23682;SDS011;24897;53.514;10.482;2023-08-06T07:04:32;35.83;;;29.10;;
23682;SDS011;24897;53.514;10.482;2023-08-06T07:07:16;32.80;;;29.07;;
23682;SDS011;24897;53.514;10.482;2023-08-06T07:10:01;34.87;;;29.30;;
23682;SDS011;24897;53.514;10.482;2023-08-06T07:12:45;32.20;;;28.47;;
23682;SDS011;24897;53.514;10.482;2023-08-06T07:15:29;33.53;;;28.70;;
23682;SDS011;24897;53.514;10.482;2023-08-06T07:18:13;36.33;;;28.90;;
23682;SDS011;24897;53.514;10.482;2023-08-06T07:20:57;36.13;;;28.83;;
23682;SDS011;24897;53.514;10.482;2023-08-06T07:23:41;34.57;;;29.97;;
23682;SDS011;24897;53.514;10.482;2023-08-06T07:26:25;34.93;;;29.17;;
23682;SDS011;24897;53.514;10.482;2023-08-06T07:29:09;42.30;;;33.87;;
23682;SDS011;24897;53.514;10.482;2023-08-06T07:31:53;45.60;;;36.77;;
23682;SDS011;24897;53.514;10.482;2023-08-06T07:34:39;46.33;;;37.67;;
23682;SDS011;24897;53.514;10.482;2023-08-06T07:37:23;45.87;;;36.37;;
23682;SDS011;24897;53.514;10.482;2023-08-06T07:40:07;47.77;;;37.13;;
23682;SDS011;24897;53.514;10.482;2023-08-06T07:42:52;45.07;;;34.73;;
23682;SDS011;24897;53.514;10.482;2023-08-06T07:45:36;42.33;;;33.60;;
23682;SDS011;24897;53.514;10.482;2023-08-06T07:48:21;45.80;;;34.40;;
23682;SDS011;24897;53.514;10.482;2023-08-06T07:51:05;44.30;;;33.70;;
23682;SDS011;24897;53.514;10.482;2023-08-06T07:53:49;42.87;;;34.00;;
23682;SDS011;24897;53.514;10.482;2023-08-06T07:56:33;43.07;;;33.17;;
23682;SDS011;24897;53.514;10.482;2023-08-06T07:59:17;45.03;;;33.97;;
23682;SDS011;24897;53.514;10.482;2023-08-06T08:02:01;42.80;;;32.93;;
23682;SDS011;24897;53.514;10.482;2023-08-06T08:04:45;41.83;;;32.23;;
23682;SDS011;24897;53.514;10.482;2023-08-06T08:07:31;42.83;;;33.80;;
23682;SDS011;24897;53.514;10.482;2023-08-06T08:10:15;45.20;;;35.47;;
23682;SDS011;24897;53.514;10.482;2023-08-06T08:12:59;42.90;;;33.93;;
23682;SDS011;24897;53.514;10.482;2023-08-06T08:15:43;44.90;;;33.87;;
23682;SDS011;24897;53.514;10.482;2023-08-06T08:18:28;47.57;;;34.87;;
23682;SDS011;24897;53.514;10.482;2023-08-06T08:21:13;44.87;;;33.67;;
23682;SDS011;24897;53.514;10.482;2023-08-06T08:23:59;44.17;;;33.10;;
23682;SDS011;24897;53.514;10.482;2023-08-06T08:26:44;45.97;;;34.97;;
23682;SDS011;24897;53.514;10.482;2023-08-06T08:29:27;44.27;;;34.97;;
23682;SDS011;24897;53.514;10.482;2023-08-06T08:32:12;43.50;;;33.93;;
23682;SDS011;24897;53.514;10.482;2023-08-06T08:34:56;44.73;;;34.13;;
23682;SDS011;24897;53.514;10.482;2023-08-06T08:37:40;47.23;;;35.33;;
23682;SDS011;24897;53.514;10.482;2023-08-06T08:40:26;47.03;;;35.37;;
23682;SDS011;24897;53.514;10.482;2023-08-06T08:43:15;43.80;;;34.50;;
23682;SDS011;24897;53.514;10.482;2023-08-06T08:46:00;42.30;;;34.23;;
23682;SDS011;24897;53.514;10.482;2023-08-06T08:48:46;43.97;;;35.67;;
23682;SDS011;24897;53.514;10.482;2023-08-06T08:51:30;44.77;;;35.40;;
23682;SDS011;24897;53.514;10.482;2023-08-06T08:54:16;46.83;;;36.37;;
23682;SDS011;24897;53.514;10.482;2023-08-06T08:57:01;46.63;;;36.63;;
23682;SDS011;24897;53.514;10.482;2023-08-06T08:59:46;46.90;;;37.10;;
23682;SDS011;24897;53.514;10.482;2023-08-06T09:02:30;47.47;;;36.80;;
23682;SDS011;24897;53.514;10.482;2023-08-06T09:05:16;45.80;;;36.70;;
23682;SDS011;24897;53.514;10.482;2023-08-06T09:08:04;48.73;;;37.63;;
23682;SDS011;24897;53.514;10.482;2023-08-06T09:10:48;55.47;;;40.93;;
23682;SDS011;24897;53.514;10.482;2023-08-06T09:13:33;51.77;;;40.27;;
23682;SDS011;24897;53.514;10.482;2023-08-06T09:16:20;47.73;;;38.80;;
23682;SDS011;24897;53.514;10.482;2023-08-06T09:19:11;49.33;;;38.73;;
23682;SDS011;24897;53.514;10.482;2023-08-06T09:21:56;50.77;;;37.50;;
23682;SDS011;24897;53.514;10.482;2023-08-06T09:24:41;49.73;;;39.13;;
23682;SDS011;24897;53.514;10.482;2023-08-06T09:27:25;48.53;;;38.13;;
23682;SDS011;24897;53.514;10.482;2023-08-06T09:30:10;50.43;;;37.80;;
23682;SDS011;24897;53.514;10.482;2023-08-06T09:32:54;48.67;;;38.13;;
23682;SDS011;24897;53.514;10.482;2023-08-06T09:35:38;47.40;;;35.77;;
23682;SDS011;24897;53.514;10.482;2023-08-06T09:38:22;45.90;;;36.10;;
23682;SDS011;24897;53.514;10.482;2023-08-06T09:41:07;45.50;;;36.47;;
23682;SDS011;24897;53.514;10.482;2023-08-06T09:43:51;43.97;;;36.10;;
23682;SDS011;24897;53.514;10.482;2023-08-06T09:46:35;43.87;;;36.13;;
23682;SDS011;24897;53.514;10.482;2023-08-06T09:49:20;42.03;;;35.00;;
23682;SDS011;24897;53.514;10.482;2023-08-06T09:52:12;44.57;;;35.90;;
23682;SDS011;24897;53.514;10.482;2023-08-06T09:54:57;41.93;;;35.27;;
23682;SDS011;24897;53.514;10.482;2023-08-06T09:57:41;42.27;;;35.30;;
23682;SDS011;24897;53.514;10.482;2023-08-06T10:00:26;44.00;;;35.10;;
23682;SDS011;24897;53.514;10.482;2023-08-06T10:03:12;42.60;;;34.97;;
23682;SDS011;24897;53.514;10.482;2023-08-06T10:05:58;42.00;;;34.90;;
23682;SDS011;24897;53.514;10.482;2023-08-06T10:08:42;41.47;;;34.63;;
23682;SDS011;24897;53.514;10.482;2023-08-06T10:11:26;44.30;;;34.73;;
23682;SDS011;24897;53.514;10.482;2023-08-06T10:14:14;39.57;;;33.27;;
23682;SDS011;24897;53.514;10.482;2023-08-06T10:17:14;43.67;;;34.93;;
23682;SDS011;24897;53.514;10.482;2023-08-06T10:19:58;42.37;;;35.23;;
23682;SDS011;24897;53.514;10.482;2023-08-06T10:22:43;41.00;;;33.97;;
23682;SDS011;24897;53.514;10.482;2023-08-06T10:25:32;39.87;;;32.93;;
23682;SDS011;24897;53.514;10.482;2023-08-06T10:28:18;37.40;;;31.60;;
23682;SDS011;24897;53.514;10.482;2023-08-06T10:31:03;37.90;;;31.10;;
23682;SDS011;24897;53.514;10.482;2023-08-06T10:33:48;40.17;;;32.60;;
23682;SDS011;24897;53.514;10.482;2023-08-06T10:36:33;39.80;;;32.00;;
23682;SDS011;24897;53.514;10.482;2023-08-06T10:39:17;41.30;;;32.70;;
23682;SDS011;24897;53.514;10.482;2023-08-06T10:42:01;43.77;;;34.50;;
23682;SDS011;24897;53.514;10.482;2023-08-06T10:45:18;39.23;;;31.70;;
23682;SDS011;24897;53.514;10.482;2023-08-06T10:47:59;37.73;;;31.60;;
23682;SDS011;24897;53.514;10.482;2023-08-06T10:50:43;38.33;;;31.57;;
23682;SDS011;24897;53.514;10.482;2023-08-06T10:53:28;40.90;;;32.77;;
23682;SDS011;24897;53.514;10.482;2023-08-06T10:56:22;37.47;;;30.10;;
23682;SDS011;24897;53.514;10.482;2023-08-06T10:59:08;34.70;;;28.27;;
23682;SDS011;24897;53.514;10.482;2023-08-06T11:01:54;40.03;;;32.10;;
23682;SDS011;24897;53.514;10.482;2023-08-06T11:04:38;36.30;;;30.27;;
23682;SDS011;24897;53.514;10.482;2023-08-06T11:07:22;37.27;;;31.50;;
23682;SDS011;24897;53.514;10.482;2023-08-06T11:10:08;36.73;;;31.37;;
23682;SDS011;24897;53.514;10.482;2023-08-06T11:13:00;38.40;;;31.80;;
23682;SDS011;24897;53.514;10.482;2023-08-06T11:15:45;38.70;;;31.57;;
23682;SDS011;24897;53.514;10.482;2023-08-06T11:18:29;36.40;;;31.50;;
23682;SDS011;24897;53.514;10.482;2023-08-06T11:21:13;37.63;;;31.73;;
23682;SDS011;24897;53.514;10.482;2023-08-06T11:23:57;37.60;;;32.50;;
23682;SDS011;24897;53.514;10.482;2023-08-06T11:26:42;37.03;;;33.00;;
23682;SDS011;24897;53.514;10.482;2023-08-06T11:29:28;38.17;;;33.20;;
23682;SDS011;24897;53.514;10.482;2023-08-06T11:32:12;38.13;;;33.00;;
23682;SDS011;24897;53.514;10.482;2023-08-06T11:34:56;40.27;;;33.97;;
23682;SDS011;24897;53.514;10.482;2023-08-06T11:37:43;38.33;;;34.13;;
23682;SDS011;24897;53.514;10.482;2023-08-06T11:40:35;41.07;;;34.63;;
23682;SDS011;24897;53.514;10.482;2023-08-06T11:43:19;38.07;;;33.43;;
23682;SDS011;24897;53.514;10.482;2023-08-06T11:46:05;37.93;;;33.73;;
23682;SDS011;24897;53.514;10.482;2023-08-06T11:48:56;39.67;;;33.57;;
23682;SDS011;24897;53.514;10.482;2023-08-06T11:51:41;39.37;;;32.80;;
23682;SDS011;24897;53.514;10.482;2023-08-06T11:54:31;38.27;;;33.40;;
23682;SDS011;24897;53.514;10.482;2023-08-06T11:57:17;41.53;;;34.27;;
23682;SDS011;24897;53.514;10.482;2023-08-06T12:00:09;40.20;;;33.70;;
23682;SDS011;24897;53.514;10.482;2023-08-06T12:02:55;38.03;;;32.50;;
23682;SDS011;24897;53.514;10.482;2023-08-06T12:05:40;42.53;;;35.50;;
23682;SDS011;24897;53.514;10.482;2023-08-06T12:08:27;39.93;;;34.90;;
23682;SDS011;24897;53.514;10.482;2023-08-06T12:11:12;39.60;;;34.67;;
23682;SDS011;24897;53.514;10.482;2023-08-06T12:13:56;37.90;;;33.70;;
23682;SDS011;24897;53.514;10.482;2023-08-06T12:16:40;39.00;;;34.73;;
23682;SDS011;24897;53.514;10.482;2023-08-06T12:19:24;40.27;;;34.67;;
23682;SDS011;24897;53.514;10.482;2023-08-06T12:22:09;38.63;;;33.57;;
23682;SDS011;24897;53.514;10.482;2023-08-06T12:24:53;38.77;;;34.53;;
23682;SDS011;24897;53.514;10.482;2023-08-06T12:27:38;38.37;;;34.20;;
23682;SDS011;24897;53.514;10.482;2023-08-06T12:30:23;36.33;;;32.33;;
23682;SDS011;24897;53.514;10.482;2023-08-06T12:33:07;37.50;;;32.53;;
23682;SDS011;24897;53.514;10.482;2023-08-06T12:35:51;36.53;;;31.37;;
23682;SDS011;24897;53.514;10.482;2023-08-06T12:38:38;38.20;;;32.40;;
23682;SDS011;24897;53.514;10.482;2023-08-06T12:41:22;37.13;;;32.93;;
23682;SDS011;24897;53.514;10.482;2023-08-06T12:44:06;37.47;;;33.30;;
23682;SDS011;24897;53.514;10.482;2023-08-06T12:46:50;37.93;;;32.43;;
23682;SDS011;24897;53.514;10.482;2023-08-06T12:49:38;38.07;;;33.87;;
23682;SDS011;24897;53.514;10.482;2023-08-06T12:52:22;36.93;;;32.90;;
23682;SDS011;24897;53.514;10.482;2023-08-06T12:55:07;35.47;;;31.67;;
23682;SDS011;24897;53.514;10.482;2023-08-06T12:57:51;35.47;;;31.70;;
23682;SDS011;24897;53.514;10.482;2023-08-06T13:00:35;34.93;;;31.17;;
23682;SDS011;24897;53.514;10.482;2023-08-06T13:03:20;34.50;;;30.80;;
23682;SDS011;24897;53.514;10.482;2023-08-06T13:06:04;39.10;;;34.90;;
23682;SDS011;24897;53.514;10.482;2023-08-06T13:08:48;36.77;;;33.00;;
23682;SDS011;24897;53.514;10.482;2023-08-06T13:11:33;40.13;;;35.73;;
23682;SDS011;24897;53.514;10.482;2023-08-06T13:14:17;36.27;;;32.47;;
23682;SDS011;24897;53.514;10.482;2023-08-06T13:17:01;35.47;;;31.73;;
23682;SDS011;24897;53.514;10.482;2023-08-06T13:19:45;33.27;;;29.90;;
23682;SDS011;24897;53.514;10.482;2023-08-06T13:22:29;33.07;;;29.97;;
23682;SDS011;24897;53.514;10.482;2023-08-06T13:25:13;34.43;;;30.97;;
23682;SDS011;24897;53.514;10.482;2023-08-06T13:27:59;33.37;;;30.17;;
23682;SDS011;24897;53.514;10.482;2023-08-06T13:30:43;31.83;;;28.47;;
23682;SDS011;24897;53.514;10.482;2023-08-06T13:33:28;30.80;;;27.70;;
23682;SDS011;24897;53.514;10.482;2023-08-06T13:36:11;31.07;;;27.87;;
23682;SDS011;24897;53.514;10.482;2023-08-06T13:38:56;31.07;;;27.83;;
23682;SDS011;24897;53.514;10.482;2023-08-06T13:41:40;31.23;;;27.83;;
23682;SDS011;24897;53.514;10.482;2023-08-06T13:44:24;30.17;;;26.97;;
23682;SDS011;24897;53.514;10.482;2023-08-06T13:47:08;29.37;;;26.33;;
23682;SDS011;24897;53.514;10.482;2023-08-06T13:49:53;28.70;;;25.70;;
23682;SDS011;24897;53.514;10.482;2023-08-06T13:52:37;30.77;;;27.53;;
23682;SDS011;24897;53.514;10.482;2023-08-06T13:55:21;30.27;;;27.27;;
23682;SDS011;24897;53.514;10.482;2023-08-06T13:58:06;30.50;;;27.50;;
23682;SDS011;24897;53.514;10.482;2023-08-06T14:00:50;32.07;;;28.57;;
23682;SDS011;24897;53.514;10.482;2023-08-06T14:03:36;31.37;;;28.03;;
23682;SDS011;24897;53.514;10.482;2023-08-06T14:06:20;32.17;;;28.90;;
23682;SDS011;24897;53.514;10.482;2023-08-06T14:09:04;31.20;;;27.87;;
23682;SDS011;24897;53.514;10.482;2023-08-06T14:11:48;30.83;;;27.70;;
23682;SDS011;24897;53.514;10.482;2023-08-06T14:14:32;31.93;;;28.70;;
23682;SDS011;24897;53.514;10.482;2023-08-06T14:17:16;29.90;;;27.00;;
23682;SDS011;24897;53.514;10.482;2023-08-06T14:20:00;32.67;;;29.27;;
23682;SDS011;24897;53.514;10.482;2023-08-06T14:22:46;30.93;;;27.73;;
23682;SDS011;24897;53.514;10.482;2023-08-06T14:25:30;31.77;;;28.57;;
23682;SDS011;24897;53.514;10.482;2023-08-06T14:28:15;30.90;;;27.70;;
23682;SDS011;24897;53.514;10.482;2023-08-06T14:30:59;31.63;;;28.20;;
23682;SDS011;24897;53.514;10.482;2023-08-06T14:33:43;33.17;;;29.90;;
23682;SDS011;24897;53.514;10.482;2023-08-06T14:36:27;32.00;;;28.73;;
23682;SDS011;24897;53.514;10.482;2023-08-06T14:39:11;30.03;;;27.13;;
23682;SDS011;24897;53.514;10.482;2023-08-06T14:41:55;31.70;;;28.50;;
23682;SDS011;24897;53.514;10.482;2023-08-06T14:44:39;31.53;;;28.43;;
23682;SDS011;24897;53.514;10.482;2023-08-06T14:47:25;32.13;;;29.07;;
23682;SDS011;24897;53.514;10.482;2023-08-06T14:50:09;32.13;;;29.03;;
23682;SDS011;24897;53.514;10.482;2023-08-06T14:52:53;31.93;;;28.73;;
23682;SDS011;24897;53.514;10.482;2023-08-06T14:55:37;33.53;;;30.07;;
23682;SDS011;24897;53.514;10.482;2023-08-06T14:58:21;33.00;;;29.73;;
23682;SDS011;24897;53.514;10.482;2023-08-06T15:01:05;33.33;;;29.87;;
23682;SDS011;24897;53.514;10.482;2023-08-06T15:03:49;33.07;;;29.57;;
23682;SDS011;24897;53.514;10.482;2023-08-06T15:06:33;34.00;;;29.50;;
23682;SDS011;24897;53.514;10.482;2023-08-06T15:09:17;30.20;;;27.00;;
23682;SDS011;24897;53.514;10.482;2023-08-06T15:12:01;30.97;;;27.77;;
23682;SDS011;24897;53.514;10.482;2023-08-06T15:14:46;29.83;;;26.63;;
23682;SDS011;24897;53.514;10.482;2023-08-06T15:17:30;32.07;;;26.97;;
23682;SDS011;24897;53.514;10.482;2023-08-06T15:20:14;29.23;;;26.10;;
23682;SDS011;24897;53.514;10.482;2023-08-06T15:22:58;29.43;;;26.07;;
23682;SDS011;24897;53.514;10.482;2023-08-06T15:25:42;28.07;;;25.03;;
23682;SDS011;24897;53.514;10.482;2023-08-06T15:28:26;30.40;;;27.10;;
23682;SDS011;24897;53.514;10.482;2023-08-06T15:31:11;30.33;;;27.03;;
23682;SDS011;24897;53.514;10.482;2023-08-06T15:33:55;29.53;;;26.37;;
23682;SDS011;24897;53.514;10.482;2023-08-06T15:36:40;28.77;;;25.47;;
23682;SDS011;24897;53.514;10.482;2023-08-06T15:39:24;29.33;;;26.23;;
23682;SDS011;24897;53.514;10.482;2023-08-06T15:42:08;29.30;;;25.93;;
23682;SDS011;24897;53.514;10.482;2023-08-06T15:44:52;29.87;;;26.43;;
23682;SDS011;24897;53.514;10.482;2023-08-06T15:47:36;29.40;;;26.20;;
23682;SDS011;24897;53.514;10.482;2023-08-06T15:50:24;30.37;;;27.17;;
23682;SDS011;24897;53.514;10.482;2023-08-06T15:53:08;28.37;;;25.57;;